sensor_id;sensor_type;location;lat;lon;timestamp;P1;durP1;ratioP1;P2;durP2;ratioP2
66143;SDS011;52947;50.842;6.084;2023-04-25T00:00:22;22.27;;;3.88;;
66143;SDS011;52947;50.842;6.084;2023-04-25T00:02:51;16.58;;;3.80;;
66143;SDS011;52947;50.842;6.084;2023-04-25T00:05:19;13.25;;;3.58;;
66143;SDS011;52947;50.842;6.084;2023-04-25T00:07:49;10.77;;;4.22;;
66143;SDS011;52947;50.842;6.084;2023-04-25T00:10:17;23.80;;;3.83;;
66143;SDS011;52947;50.842;6.084;2023-04-25T00:12:45;10.23;;;4.38;;
66143;SDS011;52947;50.842;6.084;2023-04-25T00:15:15;10.88;;;3.63;;
66143;SDS011;52947;50.842;6.084;2023-04-25T00:17:44;10.27;;;3.45;;
66143;SDS011;52947;50.842;6.084;2023-04-25T00:20:12;9.50;;;3.28;;
66143;SDS011;52947;50.842;6.084;2023-04-25T00:22:40;11.13;;;3.45;;
66143;SDS011;52947;50.842;6.084;2023-04-25T00:25:08;10.68;;;3.70;;
66143;SDS011;52947;50.842;6.084;2023-04-25T00:27:36;11.40;;;4.03;;
66143;SDS011;52947;50.842;6.084;2023-04-25T00:32:34;10.20;;;3.20;;
66143;SDS011;52947;50.842;6.084;2023-04-25T00:37:30;11.98;;;3.65;;
66143;SDS011;52947;50.842;6.084;2023-04-25T00:39:58;14.68;;;3.85;;
66143;SDS011;52947;50.842;6.084;2023-04-25T00:42:26;13.20;;;3.47;;
66143;SDS011;52947;50.842;6.084;2023-04-25T00:44:56;14.07;;;3.35;;
66143;SDS011;52947;50.842;6.084;2023-04-25T00:47:25;18.30;;;4.65;;
66143;SDS011;52947;50.842;6.084;2023-04-25T00:49:56;14.85;;;3.92;;
66143;SDS011;52947;50.842;6.084;2023-04-25T00:52:23;8.75;;;3.45;;
66143;SDS011;52947;50.842;6.084;2023-04-25T00:54:52;11.35;;;3.67;;
66143;SDS011;52947;50.842;6.084;2023-04-25T00:57:19;13.52;;;3.78;;
66143;SDS011;52947;50.842;6.084;2023-04-25T00:59:47;11.95;;;3.67;;
66143;SDS011;52947;50.842;6.084;2023-04-25T01:02:18;12.50;;;3.40;;
66143;SDS011;52947;50.842;6.084;2023-04-25T01:04:47;19.98;;;4.25;;
66143;SDS011;52947;50.842;6.084;2023-04-25T01:07:16;13.95;;;3.70;;
66143;SDS011;52947;50.842;6.084;2023-04-25T01:09:44;11.20;;;3.72;;
66143;SDS011;52947;50.842;6.084;2023-04-25T01:12:13;16.60;;;4.00;;
66143;SDS011;52947;50.842;6.084;2023-04-25T01:14:41;12.20;;;3.30;;
66143;SDS011;52947;50.842;6.084;2023-04-25T01:17:09;7.88;;;3.13;;
66143;SDS011;52947;50.842;6.084;2023-04-25T01:19:37;16.25;;;3.70;;
66143;SDS011;52947;50.842;6.084;2023-04-25T01:22:07;13.43;;;4.07;;
66143;SDS011;52947;50.842;6.084;2023-04-25T01:24:36;9.52;;;3.78;;
66143;SDS011;52947;50.842;6.084;2023-04-25T01:27:05;13.20;;;3.40;;
66143;SDS011;52947;50.842;6.084;2023-04-25T01:29:33;12.20;;;3.67;;
66143;SDS011;52947;50.842;6.084;2023-04-25T01:32:02;9.57;;;3.40;;
66143;SDS011;52947;50.842;6.084;2023-04-25T01:34:32;10.82;;;3.22;;
66143;SDS011;52947;50.842;6.084;2023-04-25T01:37:00;11.32;;;4.05;;
66143;SDS011;52947;50.842;6.084;2023-04-25T01:39:29;11.65;;;3.65;;
66143;SDS011;52947;50.842;6.084;2023-04-25T01:41:58;9.80;;;3.92;;
66143;SDS011;52947;50.842;6.084;2023-04-25T01:44:29;16.92;;;4.50;;
66143;SDS011;52947;50.842;6.084;2023-04-25T01:46:57;18.13;;;4.80;;
66143;SDS011;52947;50.842;6.084;2023-04-25T01:49:25;11.23;;;3.67;;
66143;SDS011;52947;50.842;6.084;2023-04-25T01:51:53;13.07;;;4.65;;
66143;SDS011;52947;50.842;6.084;2023-04-25T01:54:21;13.25;;;4.38;;
66143;SDS011;52947;50.842;6.084;2023-04-25T01:56:51;17.42;;;4.05;;
66143;SDS011;52947;50.842;6.084;2023-04-25T01:59:21;13.95;;;4.00;;
66143;SDS011;52947;50.842;6.084;2023-04-25T02:02:03;14.40;;;3.60;;
66143;SDS011;52947;50.842;6.084;2023-04-25T02:04:32;9.57;;;3.40;;
66143;SDS011;52947;50.842;6.084;2023-04-25T02:07:01;10.73;;;3.72;;
66143;SDS011;52947;50.842;6.084;2023-04-25T02:09:41;13.35;;;4.15;;
66143;SDS011;52947;50.842;6.084;2023-04-25T02:12:12;14.52;;;4.22;;
66143;SDS011;52947;50.842;6.084;2023-04-25T02:15:00;11.98;;;3.90;;
66143;SDS011;52947;50.842;6.084;2023-04-25T02:17:36;13.68;;;4.47;;
66143;SDS011;52947;50.842;6.084;2023-04-25T02:20:05;9.07;;;4.03;;
66143;SDS011;52947;50.842;6.084;2023-04-25T02:22:34;7.70;;;3.58;;
66143;SDS011;52947;50.842;6.084;2023-04-25T02:25:05;15.68;;;3.67;;
66143;SDS011;52947;50.842;6.084;2023-04-25T02:27:35;13.98;;;4.18;;
66143;SDS011;52947;50.842;6.084;2023-04-25T02:30:03;12.02;;;4.05;;
66143;SDS011;52947;50.842;6.084;2023-04-25T02:32:32;14.98;;;4.28;;
66143;SDS011;52947;50.842;6.084;2023-04-25T02:35:01;11.45;;;4.07;;
66143;SDS011;52947;50.842;6.084;2023-04-25T02:37:30;16.15;;;3.92;;
66143;SDS011;52947;50.842;6.084;2023-04-25T02:39:58;17.42;;;3.85;;
66143;SDS011;52947;50.842;6.084;2023-04-25T02:42:26;16.77;;;4.00;;
66143;SDS011;52947;50.842;6.084;2023-04-25T02:44:57;14.18;;;3.92;;
66143;SDS011;52947;50.842;6.084;2023-04-25T02:47:25;14.40;;;3.92;;
66143;SDS011;52947;50.842;6.084;2023-04-25T02:49:54;18.65;;;4.13;;
66143;SDS011;52947;50.842;6.084;2023-04-25T02:52:22;14.10;;;4.18;;
66143;SDS011;52947;50.842;6.084;2023-04-25T02:54:58;11.63;;;4.72;;
66143;SDS011;52947;50.842;6.084;2023-04-25T02:57:27;14.57;;;4.28;;
66143;SDS011;52947;50.842;6.084;2023-04-25T02:59:55;14.35;;;4.40;;
66143;SDS011;52947;50.842;6.084;2023-04-25T03:02:25;16.77;;;4.13;;
66143;SDS011;52947;50.842;6.084;2023-04-25T03:04:53;12.52;;;4.28;;
66143;SDS011;52947;50.842;6.084;2023-04-25T03:07:21;13.48;;;3.67;;
66143;SDS011;52947;50.842;6.084;2023-04-25T03:09:49;16.55;;;4.40;;
66143;SDS011;52947;50.842;6.084;2023-04-25T03:12:18;17.48;;;4.53;;
66143;SDS011;52947;50.842;6.084;2023-04-25T03:14:46;16.27;;;4.47;;
66143;SDS011;52947;50.842;6.084;2023-04-25T03:17:14;19.75;;;4.72;;
66143;SDS011;52947;50.842;6.084;2023-04-25T03:19:43;20.23;;;4.75;;
66143;SDS011;52947;50.842;6.084;2023-04-25T03:22:11;14.00;;;4.03;;
66143;SDS011;52947;50.842;6.084;2023-04-25T03:24:39;13.50;;;4.57;;
66143;SDS011;52947;50.842;6.084;2023-04-25T03:27:07;13.55;;;4.07;;
66143;SDS011;52947;50.842;6.084;2023-04-25T03:29:35;16.98;;;3.80;;
66143;SDS011;52947;50.842;6.084;2023-04-25T03:32:04;18.33;;;4.65;;
66143;SDS011;52947;50.842;6.084;2023-04-25T03:34:32;14.32;;;4.10;;
66143;SDS011;52947;50.842;6.084;2023-04-25T03:37:02;11.20;;;3.75;;
66143;SDS011;52947;50.842;6.084;2023-04-25T03:39:34;12.23;;;3.92;;
66143;SDS011;52947;50.842;6.084;2023-04-25T03:42:02;14.30;;;3.97;;
66143;SDS011;52947;50.842;6.084;2023-04-25T03:44:30;15.07;;;3.90;;
66143;SDS011;52947;50.842;6.084;2023-04-25T03:46:59;13.63;;;3.88;;
66143;SDS011;52947;50.842;6.084;2023-04-25T03:49:28;14.70;;;4.07;;
66143;SDS011;52947;50.842;6.084;2023-04-25T03:52:02;14.02;;;3.60;;
66143;SDS011;52947;50.842;6.084;2023-04-25T03:54:37;13.48;;;4.07;;
66143;SDS011;52947;50.842;6.084;2023-04-25T03:57:17;19.42;;;3.47;;
66143;SDS011;52947;50.842;6.084;2023-04-25T03:59:45;17.67;;;4.45;;
66143;SDS011;52947;50.842;6.084;2023-04-25T04:02:14;14.38;;;3.72;;
66143;SDS011;52947;50.842;6.084;2023-04-25T04:04:42;13.95;;;3.55;;
66143;SDS011;52947;50.842;6.084;2023-04-25T04:07:12;10.43;;;3.22;;
66143;SDS011;52947;50.842;6.084;2023-04-25T04:09:43;13.35;;;3.95;;
66143;SDS011;52947;50.842;6.084;2023-04-25T04:12:17;17.55;;;4.82;;
66143;SDS011;52947;50.842;6.084;2023-04-25T04:14:44;20.77;;;3.40;;
66143;SDS011;52947;50.842;6.084;2023-04-25T04:17:12;10.77;;;3.08;;
66143;SDS011;52947;50.842;6.084;2023-04-25T04:19:40;16.40;;;3.22;;
66143;SDS011;52947;50.842;6.084;2023-04-25T04:22:14;9.25;;;3.08;;
66143;SDS011;52947;50.842;6.084;2023-04-25T04:24:42;9.55;;;2.85;;
66143;SDS011;52947;50.842;6.084;2023-04-25T04:27:16;20.00;;;3.55;;
66143;SDS011;52947;50.842;6.084;2023-04-25T04:30:04;14.77;;;2.85;;
66143;SDS011;52947;50.842;6.084;2023-04-25T04:32:38;14.95;;;2.85;;
66143;SDS011;52947;50.842;6.084;2023-04-25T04:35:06;18.50;;;3.22;;
66143;SDS011;52947;50.842;6.084;2023-04-25T04:40:06;12.45;;;3.17;;
66143;SDS011;52947;50.842;6.084;2023-04-25T04:42:42;11.85;;;3.40;;
66143;SDS011;52947;50.842;6.084;2023-04-25T04:45:29;13.30;;;3.28;;
66143;SDS011;52947;50.842;6.084;2023-04-25T04:50:54;18.60;;;3.45;;
66143;SDS011;52947;50.842;6.084;2023-04-25T04:53:42;15.68;;;3.40;;
66143;SDS011;52947;50.842;6.084;2023-04-25T04:56:48;12.70;;;3.25;;
66143;SDS011;52947;50.842;6.084;2023-04-25T04:59:35;17.00;;;3.97;;
66143;SDS011;52947;50.842;6.084;2023-04-25T05:02:16;12.40;;;3.53;;
66143;SDS011;52947;50.842;6.084;2023-04-25T05:05:02;10.38;;;3.05;;
66143;SDS011;52947;50.842;6.084;2023-04-25T05:08:03;18.33;;;3.80;;
66143;SDS011;52947;50.842;6.084;2023-04-25T05:10:44;13.00;;;3.20;;
66143;SDS011;52947;50.842;6.084;2023-04-25T05:13:31;13.48;;;2.90;;
66143;SDS011;52947;50.842;6.084;2023-04-25T05:16:19;23.15;;;4.25;;
66143;SDS011;52947;50.842;6.084;2023-04-25T05:18:52;12.00;;;3.50;;
66143;SDS011;52947;50.842;6.084;2023-04-25T05:21:31;13.98;;;3.20;;
66143;SDS011;52947;50.842;6.084;2023-04-25T05:24:32;15.43;;;3.42;;
66143;SDS011;52947;50.842;6.084;2023-04-25T05:27:18;16.65;;;3.03;;
66143;SDS011;52947;50.842;6.084;2023-04-25T05:30:18;16.48;;;3.65;;
66143;SDS011;52947;50.842;6.084;2023-04-25T05:33:05;13.82;;;3.17;;
66143;SDS011;52947;50.842;6.084;2023-04-25T05:35:34;16.07;;;3.00;;
66143;SDS011;52947;50.842;6.084;2023-04-25T05:38:02;15.30;;;3.80;;
66143;SDS011;52947;50.842;6.084;2023-04-25T05:41:08;10.77;;;2.67;;
66143;SDS011;52947;50.842;6.084;2023-04-25T05:43:56;20.48;;;4.18;;
66143;SDS011;52947;50.842;6.084;2023-04-25T05:46:39;14.55;;;3.38;;
66143;SDS011;52947;50.842;6.084;2023-04-25T05:49:22;13.93;;;3.28;;
66143;SDS011;52947;50.842;6.084;2023-04-25T05:51:58;15.70;;;4.68;;
66143;SDS011;52947;50.842;6.084;2023-04-25T05:54:46;9.95;;;3.67;;
66143;SDS011;52947;50.842;6.084;2023-04-25T05:57:20;10.45;;;2.95;;
66143;SDS011;52947;50.842;6.084;2023-04-25T05:59:51;20.45;;;3.55;;
66143;SDS011;52947;50.842;6.084;2023-04-25T06:02:21;14.23;;;2.97;;
66143;SDS011;52947;50.842;6.084;2023-04-25T06:07:21;15.07;;;3.25;;
66143;SDS011;52947;50.842;6.084;2023-04-25T06:09:49;15.15;;;3.25;;
66143;SDS011;52947;50.842;6.084;2023-04-25T06:12:17;13.88;;;3.30;;
66143;SDS011;52947;50.842;6.084;2023-04-25T06:14:46;6.65;;;2.65;;
66143;SDS011;52947;50.842;6.084;2023-04-25T06:17:16;14.35;;;3.80;;
66143;SDS011;52947;50.842;6.084;2023-04-25T06:22:12;13.52;;;2.97;;
66143;SDS011;52947;50.842;6.084;2023-04-25T06:24:40;11.05;;;3.17;;
66143;SDS011;52947;50.842;6.084;2023-04-25T06:27:08;13.07;;;3.65;;
66143;SDS011;52947;50.842;6.084;2023-04-25T06:29:36;11.85;;;3.38;;
66143;SDS011;52947;50.842;6.084;2023-04-25T06:32:04;11.52;;;2.88;;
66143;SDS011;52947;50.842;6.084;2023-04-25T06:34:34;17.55;;;3.00;;
66143;SDS011;52947;50.842;6.084;2023-04-25T06:37:02;11.25;;;3.22;;
66143;SDS011;52947;50.842;6.084;2023-04-25T06:39:30;10.82;;;3.03;;
66143;SDS011;52947;50.842;6.084;2023-04-25T06:41:58;9.82;;;2.58;;
66143;SDS011;52947;50.842;6.084;2023-04-25T06:44:41;19.67;;;4.13;;
66143;SDS011;52947;50.842;6.084;2023-04-25T06:49:41;10.35;;;2.95;;
66143;SDS011;52947;50.842;6.084;2023-04-25T06:52:10;23.77;;;4.57;;
66143;SDS011;52947;50.842;6.084;2023-04-25T06:54:38;15.40;;;2.80;;
66143;SDS011;52947;50.842;6.084;2023-04-25T06:57:26;9.13;;;2.47;;
66143;SDS011;52947;50.842;6.084;2023-04-25T06:59:59;12.57;;;2.70;;
66143;SDS011;52947;50.842;6.084;2023-04-25T07:02:28;10.00;;;2.92;;
66143;SDS011;52947;50.842;6.084;2023-04-25T07:04:58;11.18;;;2.50;;
66143;SDS011;52947;50.842;6.084;2023-04-25T07:07:26;10.43;;;2.40;;
66143;SDS011;52947;50.842;6.084;2023-04-25T07:09:56;14.73;;;2.90;;
66143;SDS011;52947;50.842;6.084;2023-04-25T07:12:25;14.68;;;2.97;;
66143;SDS011;52947;50.842;6.084;2023-04-25T07:14:53;12.23;;;2.75;;
66143;SDS011;52947;50.842;6.084;2023-04-25T07:17:21;11.90;;;2.50;;
66143;SDS011;52947;50.842;6.084;2023-04-25T07:19:49;12.70;;;2.45;;
66143;SDS011;52947;50.842;6.084;2023-04-25T07:22:19;12.67;;;2.97;;
66143;SDS011;52947;50.842;6.084;2023-04-25T07:24:46;9.85;;;2.53;;
66143;SDS011;52947;50.842;6.084;2023-04-25T07:27:18;12.68;;;2.92;;
66143;SDS011;52947;50.842;6.084;2023-04-25T07:29:52;13.43;;;2.55;;
66143;SDS011;52947;50.842;6.084;2023-04-25T07:32:22;12.90;;;3.47;;
66143;SDS011;52947;50.842;6.084;2023-04-25T07:34:50;12.45;;;2.95;;
66143;SDS011;52947;50.842;6.084;2023-04-25T07:37:19;13.52;;;3.33;;
66143;SDS011;52947;50.842;6.084;2023-04-25T07:40:00;10.95;;;2.50;;
66143;SDS011;52947;50.842;6.084;2023-04-25T07:42:28;13.23;;;3.10;;
66143;SDS011;52947;50.842;6.084;2023-04-25T07:44:56;9.73;;;3.33;;
66143;SDS011;52947;50.842;6.084;2023-04-25T07:47:24;10.30;;;2.08;;
66143;SDS011;52947;50.842;6.084;2023-04-25T07:49:52;10.40;;;2.88;;
66143;SDS011;52947;50.842;6.084;2023-04-25T07:52:22;13.45;;;4.03;;
66143;SDS011;52947;50.842;6.084;2023-04-25T07:54:58;12.02;;;2.35;;
66143;SDS011;52947;50.842;6.084;2023-04-25T07:57:37;12.30;;;2.33;;
66143;SDS011;52947;50.842;6.084;2023-04-25T08:00:06;7.25;;;2.10;;
66143;SDS011;52947;50.842;6.084;2023-04-25T08:02:39;9.55;;;2.35;;
66143;SDS011;52947;50.842;6.084;2023-04-25T08:05:11;8.75;;;2.28;;
66143;SDS011;52947;50.842;6.084;2023-04-25T08:07:49;10.85;;;3.33;;
66143;SDS011;52947;50.842;6.084;2023-04-25T08:10:17;12.18;;;2.22;;
66143;SDS011;52947;50.842;6.084;2023-04-25T08:12:47;12.73;;;2.10;;
66143;SDS011;52947;50.842;6.084;2023-04-25T08:15:15;10.90;;;2.45;;
66143;SDS011;52947;50.842;6.084;2023-04-25T08:17:43;10.60;;;2.08;;
66143;SDS011;52947;50.842;6.084;2023-04-25T08:20:12;10.20;;;2.17;;
66143;SDS011;52947;50.842;6.084;2023-04-25T08:22:40;7.72;;;1.90;;
66143;SDS011;52947;50.842;6.084;2023-04-25T08:25:27;8.30;;;2.47;;
66143;SDS011;52947;50.842;6.084;2023-04-25T08:27:55;10.52;;;2.10;;
66143;SDS011;52947;50.842;6.084;2023-04-25T08:30:24;11.73;;;5.05;;
66143;SDS011;52947;50.842;6.084;2023-04-25T08:32:53;12.27;;;3.33;;
66143;SDS011;52947;50.842;6.084;2023-04-25T08:36:00;7.35;;;2.15;;
66143;SDS011;52947;50.842;6.084;2023-04-25T08:38:30;8.30;;;2.10;;
66143;SDS011;52947;50.842;6.084;2023-04-25T08:41:00;7.53;;;1.83;;
66143;SDS011;52947;50.842;6.084;2023-04-25T08:45:57;9.10;;;2.20;;
66143;SDS011;52947;50.842;6.084;2023-04-25T08:48:37;8.05;;;1.88;;
66143;SDS011;52947;50.842;6.084;2023-04-25T08:51:07;8.75;;;1.90;;
66143;SDS011;52947;50.842;6.084;2023-04-25T08:53:40;6.72;;;2.17;;
66143;SDS011;52947;50.842;6.084;2023-04-25T08:58:40;7.82;;;2.03;;
66143;SDS011;52947;50.842;6.084;2023-04-25T09:01:08;6.07;;;1.90;;
66143;SDS011;52947;50.842;6.084;2023-04-25T09:03:44;5.47;;;1.90;;
66143;SDS011;52947;50.842;6.084;2023-04-25T09:06:13;4.25;;;1.67;;
66143;SDS011;52947;50.842;6.084;2023-04-25T09:08:42;6.68;;;1.58;;
66143;SDS011;52947;50.842;6.084;2023-04-25T09:11:12;5.85;;;2.03;;
66143;SDS011;52947;50.842;6.084;2023-04-25T09:13:40;8.95;;;1.70;;
66143;SDS011;52947;50.842;6.084;2023-04-25T09:16:44;7.80;;;2.20;;
66143;SDS011;52947;50.842;6.084;2023-04-25T09:19:44;8.02;;;1.80;;
66143;SDS011;52947;50.842;6.084;2023-04-25T09:22:30;6.95;;;1.85;;
66143;SDS011;52947;50.842;6.084;2023-04-25T09:24:58;5.80;;;2.08;;
66143;SDS011;52947;50.842;6.084;2023-04-25T09:27:31;8.57;;;2.83;;
66143;SDS011;52947;50.842;6.084;2023-04-25T09:32:55;9.30;;;1.80;;
66143;SDS011;52947;50.842;6.084;2023-04-25T09:35:24;8.65;;;2.17;;
66143;SDS011;52947;50.842;6.084;2023-04-25T09:37:55;8.27;;;2.20;;
66143;SDS011;52947;50.842;6.084;2023-04-25T09:40:42;8.95;;;1.98;;
66143;SDS011;52947;50.842;6.084;2023-04-25T09:43:25;8.10;;;2.10;;
66143;SDS011;52947;50.842;6.084;2023-04-25T09:45:55;9.27;;;2.50;;
66143;SDS011;52947;50.842;6.084;2023-04-25T09:48:27;9.60;;;2.25;;
66143;SDS011;52947;50.842;6.084;2023-04-25T09:51:06;9.05;;;2.38;;
66143;SDS011;52947;50.842;6.084;2023-04-25T09:53:36;13.45;;;2.25;;
66143;SDS011;52947;50.842;6.084;2023-04-25T09:56:20;12.70;;;2.40;;
66143;SDS011;52947;50.842;6.084;2023-04-25T09:58:51;6.95;;;1.92;;
66143;SDS011;52947;50.842;6.084;2023-04-25T10:01:21;7.07;;;2.13;;
66143;SDS011;52947;50.842;6.084;2023-04-25T10:04:02;9.18;;;2.22;;
66143;SDS011;52947;50.842;6.084;2023-04-25T10:06:59;6.38;;;2.35;;
66143;SDS011;52947;50.842;6.084;2023-04-25T10:09:27;11.85;;;2.30;;
66143;SDS011;52947;50.842;6.084;2023-04-25T10:11:58;10.38;;;2.88;;
66143;SDS011;52947;50.842;6.084;2023-04-25T10:14:28;7.85;;;2.10;;
66143;SDS011;52947;50.842;6.084;2023-04-25T10:16:57;15.18;;;2.35;;
66143;SDS011;52947;50.842;6.084;2023-04-25T10:19:25;4.72;;;2.38;;
66143;SDS011;52947;50.842;6.084;2023-04-25T10:21:54;6.85;;;2.70;;
66143;SDS011;52947;50.842;6.084;2023-04-25T10:24:25;4.60;;;1.80;;
66143;SDS011;52947;50.842;6.084;2023-04-25T10:26:54;7.82;;;2.20;;
66143;SDS011;52947;50.842;6.084;2023-04-25T10:29:24;6.43;;;2.03;;
66143;SDS011;52947;50.842;6.084;2023-04-25T10:31:53;8.77;;;2.30;;
66143;SDS011;52947;50.842;6.084;2023-04-25T10:34:37;10.40;;;2.47;;
66143;SDS011;52947;50.842;6.084;2023-04-25T10:37:08;6.38;;;2.05;;
66143;SDS011;52947;50.842;6.084;2023-04-25T10:39:38;7.20;;;2.25;;
66143;SDS011;52947;50.842;6.084;2023-04-25T10:42:07;7.53;;;2.50;;
66143;SDS011;52947;50.842;6.084;2023-04-25T10:44:36;5.97;;;2.60;;
66143;SDS011;52947;50.842;6.084;2023-04-25T10:47:06;10.00;;;2.60;;
66143;SDS011;52947;50.842;6.084;2023-04-25T10:49:36;8.25;;;2.50;;
66143;SDS011;52947;50.842;6.084;2023-04-25T10:52:11;7.32;;;2.13;;
66143;SDS011;52947;50.842;6.084;2023-04-25T10:54:47;6.38;;;2.47;;
66143;SDS011;52947;50.842;6.084;2023-04-25T10:57:29;8.45;;;1.92;;
66143;SDS011;52947;50.842;6.084;2023-04-25T11:00:08;9.70;;;2.30;;
66143;SDS011;52947;50.842;6.084;2023-04-25T11:02:43;9.70;;;2.13;;
66143;SDS011;52947;50.842;6.084;2023-04-25T11:05:20;6.63;;;2.00;;
66143;SDS011;52947;50.842;6.084;2023-04-25T11:07:51;7.40;;;2.35;;
66143;SDS011;52947;50.842;6.084;2023-04-25T11:10:33;5.43;;;1.60;;
66143;SDS011;52947;50.842;6.084;2023-04-25T11:13:01;7.25;;;2.22;;
66143;SDS011;52947;50.842;6.084;2023-04-25T11:15:29;7.95;;;1.92;;
66143;SDS011;52947;50.842;6.084;2023-04-25T11:17:59;7.75;;;2.10;;
66143;SDS011;52947;50.842;6.084;2023-04-25T11:20:27;12.13;;;1.90;;
66143;SDS011;52947;50.842;6.084;2023-04-25T11:22:57;6.18;;;1.80;;
66143;SDS011;52947;50.842;6.084;2023-04-25T11:25:26;5.45;;;2.35;;
66143;SDS011;52947;50.842;6.084;2023-04-25T11:27:55;9.32;;;2.42;;
66143;SDS011;52947;50.842;6.084;2023-04-25T11:30:25;10.43;;;1.60;;
66143;SDS011;52947;50.842;6.084;2023-04-25T11:32:55;8.55;;;2.05;;
66143;SDS011;52947;50.842;6.084;2023-04-25T11:35:24;9.90;;;2.28;;
66143;SDS011;52947;50.842;6.084;2023-04-25T11:37:52;6.00;;;1.60;;
66143;SDS011;52947;50.842;6.084;2023-04-25T11:40:20;5.07;;;2.15;;
66143;SDS011;52947;50.842;6.084;2023-04-25T11:42:48;6.50;;;1.80;;
66143;SDS011;52947;50.842;6.084;2023-04-25T11:47:45;7.65;;;1.60;;
66143;SDS011;52947;50.842;6.084;2023-04-25T11:50:13;5.25;;;2.10;;
66143;SDS011;52947;50.842;6.084;2023-04-25T11:52:43;8.00;;;2.00;;
66143;SDS011;52947;50.842;6.084;2023-04-25T11:55:12;6.57;;;2.00;;
66143;SDS011;52947;50.842;6.084;2023-04-25T11:57:42;7.55;;;2.13;;
66143;SDS011;52947;50.842;6.084;2023-04-25T12:02:44;5.22;;;1.67;;
66143;SDS011;52947;50.842;6.084;2023-04-25T12:05:15;7.25;;;1.77;;
66143;SDS011;52947;50.842;6.084;2023-04-25T12:07:47;6.88;;;1.80;;
66143;SDS011;52947;50.842;6.084;2023-04-25T12:12:44;6.53;;;1.67;;
66143;SDS011;52947;50.842;6.084;2023-04-25T12:15:14;3.13;;;1.45;;
66143;SDS011;52947;50.842;6.084;2023-04-25T12:17:45;7.88;;;1.70;;
66143;SDS011;52947;50.842;6.084;2023-04-25T12:20:14;6.40;;;1.48;;
66143;SDS011;52947;50.842;6.084;2023-04-25T12:22:44;7.65;;;1.95;;
66143;SDS011;52947;50.842;6.084;2023-04-25T12:25:33;6.20;;;1.50;;
66143;SDS011;52947;50.842;6.084;2023-04-25T12:28:14;6.05;;;1.77;;
66143;SDS011;52947;50.842;6.084;2023-04-25T12:30:52;6.32;;;1.92;;
66143;SDS011;52947;50.842;6.084;2023-04-25T12:33:24;7.30;;;1.77;;
66143;SDS011;52947;50.842;6.084;2023-04-25T12:35:53;6.05;;;1.80;;
66143;SDS011;52947;50.842;6.084;2023-04-25T12:38:21;4.97;;;1.77;;
66143;SDS011;52947;50.842;6.084;2023-04-25T12:40:56;5.55;;;1.70;;
66143;SDS011;52947;50.842;6.084;2023-04-25T12:43:25;7.03;;;1.65;;
66143;SDS011;52947;50.842;6.084;2023-04-25T12:45:54;4.03;;;1.60;;
66143;SDS011;52947;50.842;6.084;2023-04-25T12:48:23;7.22;;;1.80;;
66143;SDS011;52947;50.842;6.084;2023-04-25T12:50:51;4.40;;;1.80;;
66143;SDS011;52947;50.842;6.084;2023-04-25T12:53:20;7.60;;;1.65;;
66143;SDS011;52947;50.842;6.084;2023-04-25T12:55:49;10.45;;;2.10;;
66143;SDS011;52947;50.842;6.084;2023-04-25T12:58:19;7.88;;;1.65;;
66143;SDS011;52947;50.842;6.084;2023-04-25T13:00:47;3.63;;;1.75;;
66143;SDS011;52947;50.842;6.084;2023-04-25T13:03:15;6.78;;;2.00;;
66143;SDS011;52947;50.842;6.084;2023-04-25T13:05:44;6.72;;;1.85;;
66143;SDS011;52947;50.842;6.084;2023-04-25T13:08:14;6.20;;;2.10;;
66143;SDS011;52947;50.842;6.084;2023-04-25T13:10:42;6.57;;;1.85;;
66143;SDS011;52947;50.842;6.084;2023-04-25T13:13:10;5.40;;;1.90;;
66143;SDS011;52947;50.842;6.084;2023-04-25T13:15:39;7.55;;;1.90;;
66143;SDS011;52947;50.842;6.084;2023-04-25T13:20:35;9.07;;;2.03;;
66143;SDS011;52947;50.842;6.084;2023-04-25T13:23:02;6.80;;;1.55;;
66143;SDS011;52947;50.842;6.084;2023-04-25T13:25:30;4.00;;;1.70;;
66143;SDS011;52947;50.842;6.084;2023-04-25T13:27:58;7.10;;;1.73;;
66143;SDS011;52947;50.842;6.084;2023-04-25T13:30:26;3.05;;;1.80;;
66143;SDS011;52947;50.842;6.084;2023-04-25T13:32:55;3.85;;;1.73;;
66143;SDS011;52947;50.842;6.084;2023-04-25T13:35:23;6.43;;;1.75;;
66143;SDS011;52947;50.842;6.084;2023-04-25T13:37:52;8.18;;;1.73;;
66143;SDS011;52947;50.842;6.084;2023-04-25T13:40:19;6.55;;;2.45;;
66143;SDS011;52947;50.842;6.084;2023-04-25T13:42:50;7.18;;;1.65;;
66143;SDS011;52947;50.842;6.084;2023-04-25T13:45:18;3.75;;;1.42;;
66143;SDS011;52947;50.842;6.084;2023-04-25T13:47:46;4.50;;;1.40;;
66143;SDS011;52947;50.842;6.084;2023-04-25T13:50:16;3.47;;;1.63;;
66143;SDS011;52947;50.842;6.084;2023-04-25T13:52:44;3.33;;;1.70;;
66143;SDS011;52947;50.842;6.084;2023-04-25T13:55:12;4.25;;;1.60;;
66143;SDS011;52947;50.842;6.084;2023-04-25T13:57:40;5.13;;;1.83;;
66143;SDS011;52947;50.842;6.084;2023-04-25T14:00:08;5.07;;;1.50;;
66143;SDS011;52947;50.842;6.084;2023-04-25T14:02:37;6.97;;;1.65;;
66143;SDS011;52947;50.842;6.084;2023-04-25T14:05:06;3.67;;;1.60;;
66143;SDS011;52947;50.842;6.084;2023-04-25T14:07:36;6.80;;;1.60;;
66143;SDS011;52947;50.842;6.084;2023-04-25T14:10:05;8.75;;;1.88;;
66143;SDS011;52947;50.842;6.084;2023-04-25T14:12:33;7.78;;;1.48;;
66143;SDS011;52947;50.842;6.084;2023-04-25T14:15:01;8.85;;;1.73;;
66143;SDS011;52947;50.842;6.084;2023-04-25T14:17:30;11.07;;;1.90;;
66143;SDS011;52947;50.842;6.084;2023-04-25T14:19:57;11.93;;;2.00;;
66143;SDS011;52947;50.842;6.084;2023-04-25T14:22:25;4.45;;;1.52;;
66143;SDS011;52947;50.842;6.084;2023-04-25T14:24:55;3.63;;;1.40;;
66143;SDS011;52947;50.842;6.084;2023-04-25T14:27:24;6.00;;;1.95;;
66143;SDS011;52947;50.842;6.084;2023-04-25T14:29:54;5.40;;;1.63;;
66143;SDS011;52947;50.842;6.084;2023-04-25T14:32:22;4.88;;;1.92;;
66143;SDS011;52947;50.842;6.084;2023-04-25T14:34:50;3.58;;;1.40;;
66143;SDS011;52947;50.842;6.084;2023-04-25T14:37:18;4.90;;;1.40;;
66143;SDS011;52947;50.842;6.084;2023-04-25T14:39:46;4.43;;;1.70;;
66143;SDS011;52947;50.842;6.084;2023-04-25T14:42:15;7.30;;;1.80;;
66143;SDS011;52947;50.842;6.084;2023-04-25T14:44:43;6.47;;;2.13;;
66143;SDS011;52947;50.842;6.084;2023-04-25T14:47:11;5.75;;;1.75;;
66143;SDS011;52947;50.842;6.084;2023-04-25T14:49:39;6.53;;;1.75;;
66143;SDS011;52947;50.842;6.084;2023-04-25T14:52:07;2.92;;;1.77;;
66143;SDS011;52947;50.842;6.084;2023-04-25T14:54:35;4.40;;;1.88;;
66143;SDS011;52947;50.842;6.084;2023-04-25T14:57:02;6.22;;;1.70;;
66143;SDS011;52947;50.842;6.084;2023-04-25T14:59:32;6.95;;;1.77;;
66143;SDS011;52947;50.842;6.084;2023-04-25T15:01:59;8.48;;;1.90;;
66143;SDS011;52947;50.842;6.084;2023-04-25T15:04:28;4.17;;;1.80;;
66143;SDS011;52947;50.842;6.084;2023-04-25T15:06:56;5.55;;;1.83;;
66143;SDS011;52947;50.842;6.084;2023-04-25T15:09:25;6.18;;;1.63;;
66143;SDS011;52947;50.842;6.084;2023-04-25T15:11:55;6.03;;;2.20;;
66143;SDS011;52947;50.842;6.084;2023-04-25T15:14:23;4.57;;;2.00;;
66143;SDS011;52947;50.842;6.084;2023-04-25T15:16:52;6.78;;;2.15;;
66143;SDS011;52947;50.842;6.084;2023-04-25T15:21:47;4.40;;;1.38;;
66143;SDS011;52947;50.842;6.084;2023-04-25T15:24:16;5.05;;;1.70;;
66143;SDS011;52947;50.842;6.084;2023-04-25T15:26:44;10.65;;;1.70;;
66143;SDS011;52947;50.842;6.084;2023-04-25T15:29:12;3.57;;;2.20;;
66143;SDS011;52947;50.842;6.084;2023-04-25T15:31:40;5.60;;;1.42;;
66143;SDS011;52947;50.842;6.084;2023-04-25T15:34:10;5.40;;;1.52;;
66143;SDS011;52947;50.842;6.084;2023-04-25T15:36:38;6.88;;;1.70;;
66143;SDS011;52947;50.842;6.084;2023-04-25T15:39:06;5.63;;;1.63;;
66143;SDS011;52947;50.842;6.084;2023-04-25T15:41:33;5.28;;;1.63;;
66143;SDS011;52947;50.842;6.084;2023-04-25T15:44:03;4.13;;;1.70;;